首页
METAR-TAF:

METAR-TAF

机场 :

York Municipal Airport

约克, 內布拉斯加州, 美国

纬度: 40-53-48N, 经度: 097-37-22W, 海拔: 509米

当前天气观测

该预报发布于24分钟前的09:15 UTC
风速3节,风向
温度 -4°C
湿度 86%
气压 1025 hPa
能見度: 16.1公里
天空无云

METAR: KJYR 220915Z AUTO 35003KT 10SM CLR M04/M06 A3026 RMK AO2

时间: 03:39 (09:39 UTC)


TAF: 丢失

超过4000个机场的气象观测和天气预报(METAR&TAF报告)。

可查询的气象台以黄色和红色小点在地图上表示。

将鼠标移到小点上方,可查看气象台名称。

然后点击查看天气观测和预报。

如需切换地图:点击带黑十字的绿色按钮放大地图;点击带横线的绿色按钮缩小地图;或者点击绿色箭头查看邻近地区的地图。


METAR-TAF: